Terminal Aerodrome Forecast
Issued by NWS El Paso, TX

Home | Current Version | Previous Version | Text Only | Print | Product List | Glossary On
Versions: 1 2 3 4 5 6 7 8 9 10 11 12 13 14 15
000
FTUS44 KEPZ 262300
TAFELP
TAF
KELP 262334Z 2700/2724 17008KT P6SM -SHRA FEW015 BKN035 OVC070
     FM270200 24008KT P6SM VCSH FEW018 SCT035 BKN060
     FM270600 VRB05KT P6SM SCT035 BKN060 BKN130
     FM271400 35010KT P6SM SCT060 SCT130=

USA.gov is the U.S. government's official web portal to all federal, state and local government web resources and services.